Time;durP1;ratioP1;P1;durP2;ratioP2;P2;SDS_P1;SDS_P2;PMS_P1;PMS_P2;Temp;Humidity;BMP_temperature;BMP_pressure;BME280_temperature;BME280_humidity;BME280_pressure;Samples;Min_cycle;Max_cycle;Signal;HPM_P1;HPM_P2
2022/07/11 00:00:26;;;;;;;3.78;2.30;;;15.20;99.90;;;;;;6315205;22;20011;-91
2022/07/11 00:03:12;;;;;;;3.92;2.42;;;15.20;99.90;;;;;;6314939;22;20014;-89
2022/07/11 00:05:38;;;;;;;3.08;2.25;;;15.20;99.90;;;;;;6340055;22;20066;-89
2022/07/11 00:08:06;;;;;;;5.47;2.20;;;15.20;99.90;;;;;;6260889;22;20101;-86
2022/07/11 00:10:51;;;;;;;6.28;2.67;;;15.20;99.90;;;;;;6313834;22;20011;-90
2022/07/11 00:13:17;;;;;;;3.92;2.65;;;15.20;99.90;;;;;;6288997;22;20025;-91
2022/07/11 00:15:44;;;;;;;4.93;2.80;;;15.10;99.90;;;;;;6316095;22;20015;-87
2022/07/11 00:18:10;;;;;;;9.95;2.80;;;15.10;99.90;;;;;;6314777;22;20018;-86
2022/07/11 00:20:55;;;;;;;4.03;2.47;;;15.10;99.90;;;;;;6290814;22;20056;-93
2022/07/11 00:23:22;;;;;;;6.15;3.17;;;15.10;99.90;;;;;;6348900;22;20021;-91
2022/07/11 00:25:49;;;;;;;6.07;3.38;;;15.10;99.90;;;;;;6293245;22;20093;-90
2022/07/11 00:28:17;;;;;;;5.45;3.17;;;15.10;99.90;;;;;;6315775;22;20018;-88
2022/07/11 00:30:45;;;;;;;8.43;3.00;;;15.10;99.90;;;;;;6262172;22;20010;-85
2022/07/11 00:33:12;;;;;;;6.05;3.13;;;15.10;99.90;;;;;;6312030;22;20018;-90
2022/07/11 00:35:38;;;;;;;5.38;3.05;;;15.10;99.90;;;;;;6286747;22;20014;-87
2022/07/11 00:38:04;;;;;;;4.90;3.03;;;15.10;99.90;;;;;;6338974;22;20499;-86
2022/07/11 00:40:30;;;;;;;5.50;3.53;;;15.10;99.90;;;;;;6313052;22;20088;-90
2022/07/11 00:42:57;;;;;;;6.97;3.28;;;15.10;99.90;;;;;;6287175;22;20010;-86
2022/07/11 00:45:23;;;;;;;4.20;2.97;;;15.10;99.90;;;;;;6312969;22;20018;-84
2022/07/11 00:47:51;;;;;;;6.55;3.13;;;15.10;99.90;;;;;;6263121;22;20014;-91
2022/07/11 00:50:18;;;;;;;5.00;2.75;;;15.00;99.90;;;;;;6289352;22;20022;-90
2022/07/11 00:52:44;;;;;;;;;;;15.10;99.90;;;;;;6291820;22;20097;-89
2022/07/11 00:55:12;;;;;;;6.30;3.00;;;15.10;99.90;;;;;;6318385;22;20461;-94
2022/07/11 00:57:41;;;;;;;5.68;2.78;;;15.00;99.90;;;;;;6323979;22;20014;-92
2022/07/11 01:00:09;;;;;;;6.70;2.83;;;15.00;99.90;;;;;;6292047;22;20125;-91
2022/07/11 01:02:36;;;;;;;9.50;3.28;;;15.20;99.90;;;;;;6290381;22;20018;-94
2022/07/11 01:05:02;;;;;;;6.78;3.65;;;15.00;99.90;;;;;;6317694;22;20109;-92
2022/07/11 01:07:30;;;;;;;7.47;3.80;;;15.00;99.90;;;;;;6291847;22;20078;-91
2022/07/11 01:09:57;;;;;;;6.10;3.60;;;15.10;99.90;;;;;;6342189;22;20057;-91
2022/07/11 01:12:24;;;;;;;6.50;3.63;;;15.00;99.90;;;;;;6316531;22;20042;-94
2022/07/11 01:18:50;;;;;;;7.32;3.15;;;15.10;99.90;;;;;;6340198;22;20018;-89
2022/07/11 01:21:25;;;;;;;5.40;2.90;;;15.10;99.90;;;;;;6315174;22;20050;-94
2022/07/11 01:23:55;;;;;;;4.75;2.70;;;15.10;99.90;;;;;;6342853;22;20018;-94
2022/07/11 01:26:40;;;;;;;4.78;3.15;;;15.10;99.90;;;;;;6342175;22;20097;-94
2022/07/11 01:29:16;;;;;;;4.95;3.20;;;15.10;99.90;;;;;;6315206;22;20064;-92
2022/07/11 01:32:01;;;;;;;3.60;2.65;;;15.10;99.90;;;;;;6315645;22;20014;-89
2022/07/11 01:34:49;;;;;;;5.15;3.17;;;15.10;99.90;;;;;;6342696;22;20102;-89
2022/07/11 01:37:36;;;;;;;4.80;3.05;;;15.10;99.90;;;;;;6315925;22;20067;-92
2022/07/11 01:40:02;;;;;;;4.38;2.83;;;15.10;99.90;;;;;;6344724;22;20018;-92
2022/07/11 01:42:48;;;;;;;5.72;2.85;;;15.10;99.90;;;;;;6293092;22;20072;-92
2022/07/11 01:45:32;;;;;;;3.67;2.83;;;15.10;99.90;;;;;;6289532;22;20033;-88
2022/07/11 01:48:19;;;;;;;4.50;3.17;;;15.10;99.90;;;;;;6315572;22;20018;-91
2022/07/11 01:51:06;;;;;;;5.53;3.33;;;15.00;99.90;;;;;;6290485;22;20086;-89
2022/07/11 01:53:55;;;;;;;6.13;3.38;;;15.00;99.90;;;;;;6341632;22;20022;-90
2022/07/11 01:56:22;;;;;;;6.63;3.17;;;15.10;99.90;;;;;;6291157;22;20010;-89
2022/07/11 01:58:49;;;;;;;5.22;3.40;;;15.10;99.90;;;;;;6289623;22;20025;-90
2022/07/11 02:01:17;;;;;;;6.10;3.05;;;15.00;99.90;;;;;;6289539;22;20023;-90
2022/07/11 02:03:45;;;;;;;5.10;3.05;;;15.10;99.90;;;;;;6288444;22;20010;-92
2022/07/11 02:08:56;;;;;;;4.00;2.83;;;15.10;99.90;;;;;;6319706;22;20022;-89
2022/07/11 02:11:23;;;;;;;6.10;3.28;;;15.10;99.90;;;;;;6310053;22;20084;-88
2022/07/11 02:14:08;;;;;;;4.93;3.28;;;15.00;99.90;;;;;;6233372;22;20347;-89
2022/07/11 02:16:36;;;;;;;6.05;2.88;;;15.10;99.90;;;;;;6281866;22;20015;-87
2022/07/11 02:19:02;;;;;;;5.70;2.65;;;15.10;99.90;;;;;;6282392;22;20742;-89
2022/07/11 02:21:28;;;;;;;5.63;3.00;;;15.00;99.90;;;;;;6232942;22;20564;-87
2022/07/11 02:23:55;;;;;;;5.78;2.85;;;15.10;99.90;;;;;;6256913;22;20026;-85
2022/07/11 02:26:21;;;;;;;4.45;2.40;;;15.00;99.90;;;;;;6232641;22;20467;-89
2022/07/11 02:29:06;;;;;;;5.30;2.60;;;15.10;99.90;;;;;;6308861;22;20010;-89
2022/07/11 02:31:33;;;;;;;4.15;2.22;;;15.10;99.90;;;;;;6309416;22;20095;-92
2022/07/11 02:34:00;;;;;;;;;;;15.00;99.90;;;;;;6309784;22;20046;-90
2022/07/11 02:36:46;;;;;;;4.63;2.28;;;15.00;99.90;;;;;;6284546;22;20342;-87
2022/07/11 02:39:14;;;;;;;4.70;1.80;;;15.00;99.90;;;;;;6310670;22;20571;-88
2022/07/11 02:41:42;;;;;;;4.72;1.73;;;15.00;99.90;;;;;;6259877;22;20015;-86
2022/07/11 02:44:45;;;;;;;3.30;1.92;;;15.00;99.90;;;;;;6284649;22;20061;-91
2022/07/11 02:47:13;;;;;;;4.20;1.80;;;15.00;99.90;;;;;;6310615;22;20017;-89
2022/07/11 02:49:58;;;;;;;3.33;1.98;;;15.00;99.90;;;;;;6337175;22;20011;-89
2022/07/11 02:52:24;;;;;;;2.10;1.40;;;15.00;99.90;;;;;;6261085;22;20015;-95
2022/07/11 02:54:52;;;;;;;3.45;1.63;;;15.00;99.90;;;;;;6339069;22;20075;-89
2022/07/11 02:57:38;;;;;;;2.88;1.77;;;15.00;99.90;;;;;;6284063;22;20458;-88
2022/07/11 03:00:11;;;;;;;2.50;1.60;;;15.00;99.90;;;;;;6308958;22;20380;-87
2022/07/11 03:02:38;;;;;;;3.80;1.63;;;15.00;99.90;;;;;;6283140;22;20475;-88
2022/07/11 03:05:06;;;;;;;4.53;1.95;;;15.00;99.90;;;;;;6309259;22;20470;-86
2022/07/11 03:07:32;;;;;;;4.63;1.88;;;15.00;99.90;;;;;;6284305;22;20027;-87
2022/07/11 03:09:58;;;;;;;4.15;1.90;;;15.00;99.90;;;;;;6308636;22;20026;-82
2022/07/11 03:12:24;;;;;;;3.30;1.88;;;15.00;99.90;;;;;;6280015;22;20014;-83
2022/07/11 03:14:50;;;;;;;5.32;1.95;;;15.00;99.90;;;;;;6279656;22;20023;-80
2022/07/11 03:17:17;;;;;;;4.93;2.17;;;15.00;99.90;;;;;;6305536;22;20079;-82
2022/07/11 03:19:43;;;;;;;3.28;1.80;;;15.00;99.90;;;;;;6277638;22;20034;-84
2022/07/11 03:22:10;;;;;;;8.82;2.17;;;15.00;99.90;;;;;;6304639;22;20052;-82
2022/07/11 03:24:36;;;;;;;3.40;1.80;;;15.00;99.90;;;;;;6305217;22;20130;-81
2022/07/11 03:27:03;;;;;;;3.88;1.80;;;15.10;99.90;;;;;;6306385;22;20014;-81
2022/07/11 03:29:28;;;;;;;6.73;1.80;;;15.00;99.90;;;;;;6306185;22;20064;-81
2022/07/11 03:31:54;;;;;;;4.88;1.90;;;15.00;99.90;;;;;;6306799;22;20015;-84
2022/07/11 03:34:20;;;;;;;4.32;1.48;;;15.00;99.90;;;;;;6306322;22;20018;-87
2022/07/11 03:36:46;;;;;;;3.78;1.40;;;15.00;99.90;;;;;;6309505;22;20335;-86
2022/07/11 03:39:33;;;;;;;3.63;1.42;;;15.00;99.90;;;;;;6309458;22;20047;-86
2022/07/11 03:41:59;;;;;;;3.85;1.10;;;15.00;99.90;;;;;;6310613;22;20340;-86
2022/07/11 03:44:25;;;;;;;3.75;1.25;;;15.00;99.90;;;;;;6258803;22;20011;-87
2022/07/11 03:46:53;;;;;;;3.63;1.40;;;15.00;99.90;;;;;;6310086;22;20025;-87
2022/07/11 03:49:20;;;;;;;3.45;0.90;;;15.00;99.90;;;;;;6257723;22;20042;-89
2022/07/11 03:51:46;;;;;;;4.22;1.38;;;15.00;99.90;;;;;;6309741;22;20015;-84
2022/07/11 03:54:12;;;;;;;2.65;1.00;;;15.00;99.90;;;;;;6283506;22;20015;-86
2022/07/11 03:56:38;;;;;;;2.35;1.10;;;15.00;99.90;;;;;;6310007;22;20060;-86
2022/07/11 03:59:05;;;;;;;2.45;1.00;;;15.00;99.90;;;;;;6307554;22;20078;-81
2022/07/11 04:01:31;;;;;;;2.97;0.93;;;15.00;99.90;;;;;;6306190;22;20050;-81
2022/07/11 04:03:57;;;;;;;2.72;1.20;;;15.00;99.90;;;;;;6304825;22;20038;-87
2022/07/11 04:06:24;;;;;;;4.97;1.30;;;15.00;99.90;;;;;;6306969;22;20077;-83
2022/07/11 04:08:50;;;;;;;5.68;1.02;;;15.00;99.90;;;;;;6322246;22;20067;-85
2022/07/11 04:11:34;;;;;;;2.67;1.15;;;15.00;99.90;;;;;;6337225;22;20471;-85
2022/07/11 04:14:00;;;;;;;2.58;1.00;;;15.00;99.90;;;;;;6341265;22;20022;-86
2022/07/11 04:16:26;;;;;;;3.60;1.05;;;15.00;99.90;;;;;;6340235;22;20061;-81
2022/07/11 04:18:52;;;;;;;5.28;0.93;;;15.00;99.90;;;;;;6339908;22;20426;-88
2022/07/11 04:21:18;;;;;;;2.45;0.90;;;15.00;99.90;;;;;;6339530;22;20097;-83
2022/07/11 04:23:45;;;;;;;1.95;0.70;;;15.00;99.90;;;;;;6338906;22;20041;-85
2022/07/11 04:26:11;;;;;;;4.07;0.75;;;15.00;99.90;;;;;;6313611;22;20026;-83
2022/07/11 04:28:37;;;;;;;2.35;0.80;;;15.00;99.90;;;;;;6286573;22;20015;-84
2022/07/11 04:31:05;;;;;;;2.95;0.90;;;15.00;99.90;;;;;;6337806;22;20021;-81
2022/07/11 04:33:31;;;;;;;4.05;0.70;;;14.90;99.90;;;;;;6366041;22;20019;-85
2022/07/11 04:35:56;;;;;;;2.90;0.50;;;14.90;99.90;;;;;;6366204;22;20014;-83
2022/07/11 04:38:23;;;;;;;1.55;0.50;;;14.90;99.90;;;;;;6367335;22;20353;-86
2022/07/11 04:40:50;;;;;;;1.10;0.50;;;14.90;99.90;;;;;;6289504;22;20403;-86
2022/07/11 04:43:36;;;;;;;2.22;0.50;;;15.00;99.90;;;;;;6313430;22;20014;-86
2022/07/11 04:46:04;;;;;;;2.53;0.63;;;15.00;99.90;;;;;;6309853;22;20030;-85
2022/07/11 04:48:31;;;;;;;3.47;0.68;;;15.00;99.90;;;;;;6337414;22;20018;-86
2022/07/11 04:50:58;;;;;;;1.63;0.70;;;15.00;99.90;;;;;;6338803;22;20018;-84
2022/07/11 04:53:26;;;;;;;1.60;0.70;;;15.10;99.90;;;;;;6314079;22;20010;-87
2022/07/11 04:55:51;;;;;;;2.50;0.80;;;15.10;99.90;;;;;;6313966;22;20405;-85
2022/07/11 04:58:17;;;;;;;1.50;0.57;;;15.20;99.90;;;;;;6337113;22;20026;-87
2022/07/11 05:00:43;;;;;;;3.00;0.40;;;15.20;99.90;;;;;;6337879;22;20028;-85
2022/07/11 05:03:09;;;;;;;4.15;0.90;;;15.20;99.90;;;;;;6334647;22;20037;-85
2022/07/11 05:05:35;;;;;;;3.20;0.60;;;15.20;99.90;;;;;;6309406;22;20452;-81
2022/07/11 05:08:01;;;;;;;1.75;0.70;;;15.20;99.90;;;;;;6334381;22;20373;-81
2022/07/11 05:10:27;;;;;;;3.83;0.60;;;15.20;99.90;;;;;;6335057;22;20120;-81
2022/07/11 05:12:54;;;;;;;3.40;0.60;;;15.20;99.90;;;;;;6309060;22;20023;-81
2022/07/11 05:15:22;;;;;;;;;;;15.40;99.90;;;;;;6309267;22;20014;-82
2022/07/11 05:17:48;;;;;;;2.67;0.70;;;15.30;99.90;;;;;;6334107;22;19985;-82
2022/07/11 05:20:35;;;;;;;1.85;0.60;;;15.30;99.90;;;;;;6308516;22;20025;-82
2022/07/11 05:23:03;;;;;;;2.10;0.70;;;15.30;99.90;;;;;;6312421;22;20070;-84
2022/07/11 05:25:29;;;;;;;4.65;0.70;;;15.30;99.90;;;;;;6309159;22;20022;-84
2022/07/11 05:27:56;;;;;;;5.47;0.85;;;15.30;99.90;;;;;;6304981;22;20040;-83
2022/07/11 05:30:22;;;;;;;3.30;0.70;;;15.30;99.90;;;;;;6256541;22;20042;-84
2022/07/11 05:32:48;;;;;;;2.78;0.70;;;15.30;99.90;;;;;;6334449;22;20018;-84
2022/07/11 05:35:14;;;;;;;2.67;0.40;;;15.30;99.90;;;;;;6282426;22;20013;-83
2022/07/11 05:37:40;;;;;;;5.35;0.80;;;15.40;99.90;;;;;;6309538;22;20014;-84
2022/07/11 05:40:06;;;;;;;2.35;0.52;;;15.40;99.90;;;;;;6308887;22;20620;-84
2022/07/11 05:42:33;;;;;;;1.48;0.47;;;15.50;99.90;;;;;;6309061;22;20053;-82
2022/07/11 05:44:58;;;;;;;0.90;0.25;;;15.50;99.90;;;;;;6334668;22;20046;-83
2022/07/11 05:47:24;;;;;;;3.70;0.60;;;15.40;99.90;;;;;;6334500;22;20473;-84
2022/07/11 05:49:53;;;;;;;3.15;0.50;;;15.40;99.90;;;;;;6306319;22;20433;-81
2022/07/11 05:52:19;;;;;;;2.55;0.40;;;15.40;99.90;;;;;;6334622;22;20063;-84
2022/07/11 05:54:45;;;;;;;1.42;0.30;;;15.50;99.90;;;;;;6308668;22;20094;-82
2022/07/11 05:57:11;;;;;;;1.48;0.30;;;15.50;99.90;;;;;;6333925;22;20494;-81
2022/07/11 05:59:38;;;;;;;0.93;0.40;;;15.50;99.90;;;;;;6281659;22;20442;-82
2022/07/11 06:02:04;;;;;;;2.63;0.45;;;15.50;99.90;;;;;;6307460;22;20021;-84
2022/07/11 06:04:33;;;;;;;3.75;0.55;;;15.50;99.90;;;;;;6305883;22;20014;-82
2022/07/11 06:07:00;;;;;;;1.63;0.40;;;15.50;99.90;;;;;;6334333;22;20447;-83
2022/07/11 06:09:25;;;;;;;1.05;0.20;;;15.50;99.90;;;;;;6334252;22;20029;-81
2022/07/11 06:11:51;;;;;;;1.88;0.30;;;15.50;99.90;;;;;;6308640;22;20391;-83
2022/07/11 06:14:18;;;;;;;0.95;0.32;;;15.60;99.90;;;;;;6308234;22;20018;-85
2022/07/11 06:16:47;;;;;;;1.13;0.30;;;15.60;99.90;;;;;;6282542;22;20089;-82
2022/07/11 06:19:14;;;;;;;0.77;0.22;;;15.60;99.90;;;;;;6331755;22;20018;-84
2022/07/11 06:21:40;;;;;;;1.92;0.30;;;15.80;99.90;;;;;;6333389;22;20022;-84
2022/07/11 06:24:07;;;;;;;0.45;0.20;;;15.80;99.90;;;;;;6308190;22;20050;-82
2022/07/11 06:26:33;;;;;;;2.15;0.40;;;15.80;99.90;;;;;;6308817;22;20018;-85
2022/07/11 06:29:00;;;;;;;0.95;0.40;;;15.80;99.90;;;;;;6308325;22;20046;-82
2022/07/11 06:31:26;;;;;;;1.38;0.30;;;15.80;99.90;;;;;;6334737;22;20442;-84
2022/07/11 06:33:55;;;;;;;0.63;0.30;;;15.90;99.90;;;;;;6306439;22;20011;-84
2022/07/11 06:36:24;;;;;;;0.77;0.30;;;15.90;99.90;;;;;;6308461;22;20014;-84
2022/07/11 06:38:51;;;;;;;0.95;0.40;;;16.00;99.90;;;;;;6308200;22;20029;-82
2022/07/11 06:41:18;;;;;;;0.50;0.20;;;16.00;99.90;;;;;;6334896;22;20018;-83
2022/07/11 06:43:44;;;;;;;3.30;0.52;;;16.00;99.90;;;;;;6282114;22;20014;-84
2022/07/11 06:46:10;;;;;;;0.52;0.22;;;16.10;99.90;;;;;;6334398;22;20550;-85
2022/07/11 06:48:35;;;;;;;1.00;0.60;;;16.10;99.90;;;;;;6306899;22;20320;-84
2022/07/11 06:51:01;;;;;;;2.58;0.30;;;16.20;99.90;;;;;;6305448;22;20097;-83
2022/07/11 06:53:27;;;;;;;1.50;0.40;;;16.20;99.90;;;;;;6335168;22;20015;-85
2022/07/11 06:55:53;;;;;;;2.15;0.52;;;16.20;99.90;;;;;;6257976;22;20018;-82
2022/07/11 06:58:31;;;;;;;1.23;0.30;;;16.30;99.90;;;;;;6309524;22;20026;-84
2022/07/11 07:01:00;;;;;;;1.60;0.30;;;16.30;99.90;;;;;;6288635;22;20011;-81
2022/07/11 07:03:26;;;;;;;1.33;0.40;;;16.30;99.90;;;;;;6308626;22;20026;-82
2022/07/11 07:05:55;;;;;;;1.47;0.60;;;16.30;99.90;;;;;;6307642;22;20011;-83
2022/07/11 07:08:25;;;;;;;1.95;0.63;;;16.30;99.90;;;;;;6306482;22;20021;-80
2022/07/11 07:10:52;;;;;;;1.83;0.47;;;16.30;99.90;;;;;;6334763;22;20022;-83
2022/07/11 07:13:20;;;;;;;3.28;0.70;;;16.30;99.90;;;;;;6308443;22;20014;-84
2022/07/11 07:15:47;;;;;;;1.75;0.50;;;16.30;99.90;;;;;;6308972;22;20022;-84
2022/07/11 07:18:14;;;;;;;1.63;0.60;;;16.30;99.90;;;;;;6308147;22;20018;-85
2022/07/11 07:20:40;;;;;;;;;;;16.20;99.90;;;;;;6257916;22;20098;-82
2022/07/11 07:23:06;;;;;;;1.02;0.32;;;16.20;99.90;;;;;;6307988;22;19957;-85
2022/07/11 07:25:34;;;;;;;1.40;0.40;;;16.20;99.90;;;;;;6334941;22;20014;-80
2022/07/11 07:28:00;;;;;;;1.30;0.52;;;16.30;99.90;;;;;;6334287;22;20106;-84
2022/07/11 07:30:26;;;;;;;2.17;0.40;;;16.40;99.90;;;;;;6334641;22;20026;-81
2022/07/11 07:32:52;;;;;;;3.08;0.70;;;16.50;99.90;;;;;;6282267;22;20014;-84
2022/07/11 07:35:19;;;;;;;2.10;0.50;;;16.40;99.90;;;;;;6307140;22;20461;-84
2022/07/11 07:37:45;;;;;;;2.03;0.50;;;16.40;99.90;;;;;;6334066;22;20071;-82
2022/07/11 07:40:11;;;;;;;0.90;0.40;;;16.40;99.90;;;;;;6308773;22;20379;-81
2022/07/11 07:42:37;;;;;;;1.52;0.40;;;16.40;99.90;;;;;;6283764;22;20430;-83
2022/07/11 07:45:03;;;;;;;1.17;0.57;;;16.50;99.90;;;;;;6334580;22;20052;-85
2022/07/11 07:47:30;;;;;;;0.73;0.40;;;16.50;99.90;;;;;;6309494;22;20548;-81
2022/07/11 07:49:56;;;;;;;0.70;0.43;;;16.50;99.90;;;;;;6306107;22;20011;-84
2022/07/11 07:52:22;;;;;;;2.70;0.40;;;16.50;99.90;;;;;;6333735;22;20030;-82
2022/07/11 07:54:48;;;;;;;0.50;0.30;;;16.40;99.90;;;;;;6308683;22;20068;-82
2022/07/11 07:57:14;;;;;;;3.58;0.40;;;16.50;99.90;;;;;;6308758;22;20022;-84
2022/07/11 07:59:40;;;;;;;0.32;0.20;;;16.50;99.90;;;;;;6283212;22;20033;-83
2022/07/11 08:02:07;;;;;;;0.50;0.20;;;16.50;99.90;;;;;;6334909;22;20053;-82
2022/07/11 08:04:33;;;;;;;1.40;0.20;;;16.60;99.90;;;;;;6306671;22;20018;-85
2022/07/11 08:06:59;;;;;;;0.68;0.30;;;16.60;99.90;;;;;;6334180;22;20042;-83
2022/07/11 08:09:26;;;;;;;1.92;0.20;;;16.70;99.90;;;;;;6307503;22;20022;-82
2022/07/11 08:11:52;;;;;;;;;;;16.70;99.90;;;;;;6336882;22;20022;-82
2022/07/11 08:14:18;;;;;;;0.80;0.38;;;16.90;99.90;;;;;;6310337;22;19914;-85
2022/07/11 08:16:44;;;;;;;1.45;0.30;;;17.80;99.90;;;;;;6285894;22;20101;-84
2022/07/11 08:19:11;;;;;;;1.52;0.28;;;18.20;99.90;;;;;;6310000;22;20018;-82
2022/07/11 08:21:38;;;;;;;0.30;0.20;;;18.00;99.90;;;;;;6364303;22;20025;-84
2022/07/11 08:24:05;;;;;;;0.63;0.30;;;17.80;99.90;;;;;;6336578;22;20920;-82
2022/07/11 08:26:32;;;;;;;;;;;17.70;99.90;;;;;;6313285;22;20382;-85
2022/07/11 08:29:02;;;;;;;0.80;0.20;;;17.50;99.90;;;;;;6339040;22;19914;-83
2022/07/11 08:31:31;;;;;;;0.93;0.20;;;17.40;99.90;;;;;;6313765;22;20116;-85
2022/07/11 08:34:00;;;;;;;0.90;0.20;;;17.30;99.90;;;;;;6338432;22;20021;-83
2022/07/11 08:36:27;;;;;;;1.98;0.20;;;17.20;99.90;;;;;;6338207;22;20022;-85
2022/07/11 08:39:14;;;;;;;0.55;0.40;;;17.10;99.90;;;;;;6339235;22;20102;-82
2022/07/11 08:41:43;;;;;;;1.10;0.30;;;17.00;99.90;;;;;;6337930;22;20435;-83
2022/07/11 08:44:11;;;;;;;0.40;0.30;;;16.90;99.90;;;;;;6285338;22;20010;-84
2022/07/11 08:46:40;;;;;;;0.75;0.20;;;16.80;99.90;;;;;;6336513;22;20032;-83
2022/07/11 08:49:06;;;;;;;1.20;0.32;;;16.80;99.90;;;;;;6308281;22;20019;-84
2022/07/11 08:51:36;;;;;;;0.52;0.20;;;16.80;99.90;;;;;;6310458;22;20477;-84
2022/07/11 08:54:02;;;;;;;0.20;0.17;;;16.90;99.90;;;;;;6336606;22;20110;-83
2022/07/11 08:56:29;;;;;;;0.68;0.30;;;17.00;99.90;;;;;;6310281;22;20075;-84
2022/07/11 08:58:58;;;;;;;0.75;0.20;;;17.20;99.90;;;;;;6310594;22;20014;-81
2022/07/11 09:01:29;;;;;;;0.20;0.13;;;17.70;99.90;;;;;;6337828;22;20029;-84
2022/07/11 09:03:57;;;;;;;1.48;0.20;;;17.70;99.90;;;;;;6334431;22;20038;-82
2022/07/11 09:06:24;;;;;;;1.00;0.28;;;17.50;99.90;;;;;;6309975;22;20029;-83
2022/07/11 09:08:50;;;;;;;1.33;0.20;;;17.40;99.90;;;;;;6309013;22;20017;-86
2022/07/11 09:11:16;;;;;;;1.27;0.10;;;17.30;99.90;;;;;;6311042;22;20022;-83
2022/07/11 09:13:42;;;;;;;0.65;0.10;;;17.30;99.90;;;;;;6310025;22;20018;-84
2022/07/11 09:16:09;;;;;;;0.20;0.10;;;17.30;99.90;;;;;;6285239;22;20018;-85
2022/07/11 09:18:40;;;;;;;0.20;0.10;;;17.30;99.90;;;;;;6334763;22;20022;-83
2022/07/11 09:26:43;;;;;;;0.63;0.20;;;17.30;99.90;;;;;;6336156;22;20022;-83
2022/07/11 09:29:13;;;;;;;1.08;0.20;;;17.30;99.90;;;;;;6311069;22;20015;-87
2022/07/11 09:31:41;;;;;;;0.98;0.30;;;17.20;99.90;;;;;;6337749;22;20042;-89
2022/07/11 09:34:13;;;;;;;2.47;0.25;;;17.20;99.90;;;;;;6336614;22;20483;-84
2022/07/11 09:36:45;;;;;;;1.90;0.30;;;17.20;99.90;;;;;;6336745;22;20018;-82
2022/07/11 09:39:17;;;;;;;1.67;0.30;;;17.20;99.90;;;;;;6311669;22;20634;-85
2022/07/11 09:41:44;;;;;;;1.35;0.30;;;17.20;99.90;;;;;;6310770;22;20026;-85
2022/07/11 09:44:18;;;;;;;0.50;0.28;;;17.20;99.90;;;;;;6310017;22;20093;-81
2022/07/11 09:46:51;;;;;;;0.60;0.30;;;17.20;99.90;;;;;;6311025;22;20017;-84
2022/07/11 09:49:34;;;;;;;0.80;0.20;;;17.20;99.90;;;;;;6312927;22;20018;-92
2022/07/11 09:52:13;;;;;;;0.50;0.20;;;17.30;99.90;;;;;;6314082;22;20020;-88
2022/07/11 09:55:01;;;;;;;0.95;0.30;;;17.40;99.90;;;;;;6340523;22;20083;-94
2022/07/11 09:57:38;;;;;;;0.10;0.10;;;17.40;99.90;;;;;;6312787;22;20338;-86
2022/07/11 10:00:24;;;;;;;0.68;0.30;;;17.40;99.90;;;;;;6340713;22;20040;-90
2022/07/11 10:02:55;;;;;;;1.73;0.50;;;17.50;99.90;;;;;;6313692;22;20014;-90
2022/07/11 10:05:25;;;;;;;1.38;0.30;;;17.40;99.90;;;;;;6308831;22;20102;-87
2022/07/11 10:07:51;;;;;;;0.38;0.20;;;17.40;99.90;;;;;;6308080;22;20665;-86
2022/07/11 10:10:18;;;;;;;0.17;0.17;;;17.30;99.90;;;;;;6314226;22;20090;-89
2022/07/11 10:12:46;;;;;;;0.63;0.20;;;17.30;99.90;;;;;;6294680;22;20021;-86
2022/07/11 10:15:16;;;;;;;1.13;0.40;;;17.40;99.90;;;;;;6291608;22;20018;-91
2022/07/11 10:17:48;;;;;;;2.35;0.40;;;17.40;99.90;;;;;;6340338;22;20014;-88
2022/07/11 10:20:21;;;;;;;1.00;0.47;;;17.40;99.90;;;;;;6338944;22;20028;-90
2022/07/11 10:22:50;;;;;;;0.15;0.10;;;17.40;99.90;;;;;;6314795;22;20129;-93
2022/07/11 10:25:40;;;;;;;0.40;0.30;;;17.40;99.90;;;;;;6311166;22;20110;-86
2022/07/11 10:28:13;;;;;;;1.33;0.30;;;17.50;99.90;;;;;;6335813;22;20024;-83
2022/07/11 10:30:51;;;;;;;1.92;0.50;;;17.50;99.90;;;;;;6309115;22;20018;-82
2022/07/11 10:33:18;;;;;;;0.40;0.25;;;17.40;99.90;;;;;;6307524;22;20045;-81
2022/07/11 10:35:47;;;;;;;2.60;0.28;;;17.40;99.90;;;;;;6283956;22;20029;-84
2022/07/11 10:38:14;;;;;;;1.85;0.50;;;17.40;99.90;;;;;;6333105;22;20022;-84
2022/07/11 10:40:42;;;;;;;1.13;0.30;;;17.30;99.90;;;;;;6308789;22;20343;-81
2022/07/11 10:43:10;;;;;;;2.60;0.40;;;17.40;99.90;;;;;;6308671;22;20018;-82
2022/07/11 10:46:28;;;;;;;0.90;0.50;;;17.40;99.90;;;;;;6306967;22;20046;-87
2022/07/11 10:49:00;;;;;;;0.75;0.50;;;17.40;99.90;;;;;;6270190;22;20053;-83
2022/07/11 10:51:29;;;;;;;1.05;0.40;;;17.40;99.90;;;;;;6307737;22;20490;-84
2022/07/11 10:54:04;;;;;;;1.23;0.52;;;17.30;99.90;;;;;;6334013;22;20010;-82
2022/07/11 10:56:32;;;;;;;1.48;0.55;;;17.40;99.90;;;;;;6334749;22;20532;-87
2022/07/11 10:59:16;;;;;;;1.02;0.47;;;17.40;99.90;;;;;;6309266;22;20446;-82
2022/07/11 11:02:02;;;;;;;2.92;0.60;;;17.40;99.90;;;;;;6334009;22;20396;-86
2022/07/11 11:04:49;;;;;;;0.40;0.22;;;17.50;99.90;;;;;;6307189;22;20014;-82
2022/07/11 11:07:30;;;;;;;1.42;0.40;;;17.50;99.90;;;;;;6334979;22;20084;-83
2022/07/11 11:10:00;;;;;;;0.38;0.30;;;17.60;99.90;;;;;;6303063;22;20025;-84
2022/07/11 11:13:07;;;;;;;0.68;0.30;;;17.70;99.90;;;;;;6327908;22;20026;-86
2022/07/11 11:15:42;;;;;;;0.55;0.25;;;17.80;99.90;;;;;;6328422;22;20047;-81
2022/07/11 11:18:25;;;;;;;0.55;0.30;;;17.90;99.90;;;;;;6327092;22;20096;-87
2022/07/11 11:21:00;;;;;;;0.40;0.25;;;17.90;99.90;;;;;;6328334;22;20019;-81
2022/07/11 11:24:00;;;;;;;0.55;0.20;;;17.90;99.90;;;;;;6326409;22;20427;-83
2022/07/11 11:26:45;;;;;;;0.20;0.20;;;17.80;99.90;;;;;;6305157;22;20014;-82
2022/07/11 11:29:11;;;;;;;0.45;0.20;;;17.80;99.90;;;;;;6328738;22;20030;-86
2022/07/11 11:31:38;;;;;;;1.40;0.30;;;17.80;99.90;;;;;;6289761;22;20022;-82
2022/07/11 11:34:05;;;;;;;0.73;0.20;;;17.90;99.90;;;;;;6300186;22;20421;-81
2022/07/11 11:36:31;;;;;;;;;;;17.90;99.90;;;;;;6328002;22;20030;-84
2022/07/11 11:38:58;;;;;;;1.45;0.20;;;17.90;99.90;;;;;;6319434;22;19964;-84
2022/07/11 11:41:26;;;;;;;1.23;0.32;;;17.90;99.90;;;;;;6301283;22;20463;-81
2022/07/11 11:43:54;;;;;;;2.45;0.70;;;18.00;99.90;;;;;;6316786;22;20014;-80
2022/07/11 11:46:24;;;;;;;2.15;0.38;;;18.00;99.90;;;;;;6302523;22;20050;-81
2022/07/11 11:49:09;;;;;;;3.40;0.50;;;18.00;99.90;;;;;;6268240;22;20034;-91
2022/07/11 11:51:37;;;;;;;1.13;0.30;;;18.00;99.90;;;;;;6306746;22;20015;-88
2022/07/11 11:54:04;;;;;;;0.40;0.30;;;18.00;99.90;;;;;;6273348;22;20568;-87
2022/07/11 11:56:36;;;;;;;2.00;0.40;;;18.00;99.90;;;;;;6331372;22;20015;-86
2022/07/11 11:59:12;;;;;;;1.17;0.30;;;18.10;99.90;;;;;;6297083;22;20497;-88
2022/07/11 12:01:39;;;;;;;0.43;0.20;;;18.10;99.90;;;;;;6329199;22;20136;-84
2022/07/11 12:04:10;;;;;;;0.30;0.30;;;18.10;99.90;;;;;;6300666;22;20011;-83
2022/07/11 12:06:42;;;;;;;0.22;0.20;;;18.10;99.90;;;;;;6315914;22;20029;-82
2022/07/11 12:09:16;;;;;;;2.35;0.35;;;18.30;99.90;;;;;;6327146;22;20015;-83
2022/07/11 12:11:48;;;;;;;0.65;0.30;;;18.10;99.90;;;;;;6304053;22;20047;-81
2022/07/11 12:14:15;;;;;;;2.08;0.25;;;18.10;99.90;;;;;;6302901;22;20025;-83
2022/07/11 12:16:48;;;;;;;0.85;0.40;;;18.10;99.90;;;;;;6318173;22;20023;-80
2022/07/11 12:19:16;;;;;;;3.83;0.40;;;18.10;99.90;;;;;;6302143;22;20046;-82
2022/07/11 12:21:45;;;;;;;1.67;0.28;;;18.20;99.90;;;;;;6291659;22;20094;-85
2022/07/11 12:24:16;;;;;;;1.13;0.32;;;18.20;99.90;;;;;;6328978;22;20072;-83
2022/07/11 12:26:43;;;;;;;0.80;0.47;;;18.20;99.90;;;;;;6290357;22;20470;-83
2022/07/11 12:29:19;;;;;;;1.50;0.88;;;18.10;99.90;;;;;;6277864;22;20019;-81
2022/07/11 12:31:49;;;;;;;1.20;0.50;;;18.10;99.90;;;;;;6328850;22;20079;-83
2022/07/11 12:34:27;;;;;;;0.40;0.30;;;18.20;99.90;;;;;;6328363;22;20071;-83
2022/07/11 12:37:04;;;;;;;0.82;0.40;;;18.10;99.90;;;;;;6320941;22;20508;-85
2022/07/11 12:39:33;;;;;;;0.40;0.30;;;18.10;99.90;;;;;;6278447;22;20021;-81
2022/07/11 12:42:01;;;;;;;1.83;0.35;;;18.10;99.90;;;;;;6323386;22;20343;-87
2022/07/11 12:47:24;;;;;;;0.73;0.40;;;18.10;99.90;;;;;;6328292;22;20022;-85
2022/07/11 12:49:51;;;;;;;2.30;0.30;;;18.00;99.90;;;;;;6294571;22;20015;-86
2022/07/11 12:52:17;;;;;;;1.13;0.20;;;18.00;99.90;;;;;;6305499;22;20462;-84
2022/07/11 12:54:43;;;;;;;0.50;0.35;;;18.10;99.90;;;;;;6322063;22;20143;-86
2022/07/11 12:57:15;;;;;;;0.98;0.20;;;18.10;99.90;;;;;;6281031;22;20061;-86
2022/07/11 12:59:44;;;;;;;0.90;0.38;;;18.00;99.90;;;;;;6280756;22;20014;-84
2022/07/11 13:02:12;;;;;;;0.77;0.30;;;18.10;99.90;;;;;;6305530;22;20030;-86
2022/07/11 13:04:43;;;;;;;1.42;0.50;;;18.20;99.90;;;;;;6303591;22;20054;-85
2022/07/11 13:10:18;;;;;;;2.15;0.20;;;18.10;99.90;;;;;;6331933;22;20474;-84
2022/07/11 13:12:46;;;;;;;0.68;0.30;;;18.20;99.90;;;;;;6320142;22;20046;-85
2022/07/11 13:15:19;;;;;;;1.02;0.57;;;18.20;99.90;;;;;;6306425;22;20319;-85
2022/07/11 13:17:47;;;;;;;0.40;0.30;;;18.20;99.90;;;;;;6243583;22;20048;-86
2022/07/11 13:20:19;;;;;;;1.20;0.38;;;18.20;99.90;;;;;;6331560;22;20592;-86